Terminal Aerodrome Forecast
Issued by NWS

Home | Current Version | Previous Version | Text Only | Print | Product List | Glossary On
Versions: 1 2 3 4 5 6 7 8 9 10 11 12
000
FTUS45 KTWC 241100
TAFOLS
TAF
KOLS 241135Z 2412/2512 VRB04KT P6SM SKC
     FM242000 25006KT P6SM SKC
     FM250300 07004KT P6SM SKC=

USA.gov is the U.S. government's official web portal to all federal, state and local government web resources and services.